Airport Name : Adak

Other Name : Adak

ICAO : PADK

IATA : ADK

FAA : PADK

Latitude : 51.877964

Longitude : -176.646031

Country : United States

Local Date and Time : 20 Jul 2024 23:05

 

TAF (Terminal Aerodrome Forecast)

 

METAR (METeorological Aerodrome Report)

PADK 210756Z AUTO 19009KT 1 1/2SM BR OVC010 09/09 A2974 RMK AO2 SLP071 T00940089 401390094 $

PADK 210725Z AUTO 19013KT 1 1/2SM BR OVC010 09/09 A2973 RMK AO2 CIG 007V013 $

PADK 210713Z AUTO 18016KT 1 3/4SM BR BKN008 OVC012 09/09 A2973 RMK AO2 $

PADK 210656Z AUTO 19019KT 9SM OVC008 09/09 A2973 RMK AO2 CIG 007V011 SLP066 T00940089 $

PADK 210630Z AUTO 18013KT 3SM BR OVC008 10/09 A2973 RMK AO2 CIG 006V011 $

PADK 210625Z AUTO 18013KT 1 3/4SM BR OVC008 10/09 A2973 RMK AO2 CIG 006V012 $

PADK 210615Z AUTO 18015KT 2 1/2SM BR OVC008 10/09 A2973 RMK AO2 VIS 1 1/2V4 CIG 006V012 $

PADK 210609Z AUTO 19013KT 4SM BR OVC010 10/09 A2973 RMK AO2 CIG 006V012 $

PADK 210556Z AUTO 19015KT 2SM BR OVC010 10/09 A2972 RMK AO2 CIG 007V013 SLP064 T01000089 10117 20100 55002 $

PADK 210549Z AUTO 18016KT 2SM BR OVC010 10/09 A2972 RMK AO2 VIS 1 1/4V5 CIG 007V014 $

PADK 210456Z AUTO 19014KT 5SM BR OVC013 10/09 A2972 RMK AO2 SLP062 T01000094 $

PADK 210439Z AUTO 19016KT 5SM BR OVC015 11/09 A2971 RMK AO2 $